sensor_id;sensor_type;location;lat;lon;timestamp;P1;durP1;ratioP1;P2;durP2;ratioP2
16272;SDS011;8244;50.044;9.006;2023-02-01T00:02:08;8.75;;;4.97;;
16272;SDS011;8244;50.044;9.006;2023-02-01T00:07:10;8.30;;;4.60;;
16272;SDS011;8244;50.044;9.006;2023-02-01T00:12:13;7.97;;;4.73;;
16272;SDS011;8244;50.044;9.006;2023-02-01T00:17:14;11.47;;;4.83;;
16272;SDS011;8244;50.044;9.006;2023-02-01T00:22:16;8.68;;;4.25;;
16272;SDS011;8244;50.044;9.006;2023-02-01T00:27:19;7.95;;;4.20;;
16272;SDS011;8244;50.044;9.006;2023-02-01T00:32:21;7.20;;;4.47;;
16272;SDS011;8244;50.044;9.006;2023-02-01T00:37:23;7.83;;;4.40;;
16272;SDS011;8244;50.044;9.006;2023-02-01T00:42:25;10.03;;;4.67;;
16272;SDS011;8244;50.044;9.006;2023-02-01T00:47:27;8.87;;;4.87;;
16272;SDS011;8244;50.044;9.006;2023-02-01T00:52:30;7.68;;;4.65;;
16272;SDS011;8244;50.044;9.006;2023-02-01T00:57:33;9.33;;;4.30;;
16272;SDS011;8244;50.044;9.006;2023-02-01T01:02:34;8.87;;;4.40;;
16272;SDS011;8244;50.044;9.006;2023-02-01T01:07:36;7.93;;;4.60;;
16272;SDS011;8244;50.044;9.006;2023-02-01T01:12:39;7.82;;;4.65;;
16272;SDS011;8244;50.044;9.006;2023-02-01T01:17:41;9.82;;;4.97;;
16272;SDS011;8244;50.044;9.006;2023-02-01T01:22:43;8.95;;;4.70;;
16272;SDS011;8244;50.044;9.006;2023-02-01T01:27:48;9.77;;;5.10;;
16272;SDS011;8244;50.044;9.006;2023-02-01T01:32:51;13.43;;;5.47;;
16272;SDS011;8244;50.044;9.006;2023-02-01T01:37:52;9.27;;;5.07;;
16272;SDS011;8244;50.044;9.006;2023-02-01T01:42:56;10.80;;;4.90;;
16272;SDS011;8244;50.044;9.006;2023-02-01T01:47:58;9.27;;;5.05;;
16272;SDS011;8244;50.044;9.006;2023-02-01T01:53:03;11.48;;;5.32;;
16272;SDS011;8244;50.044;9.006;2023-02-01T01:58:09;9.07;;;4.83;;
16272;SDS011;8244;50.044;9.006;2023-02-01T02:03:14;12.17;;;5.80;;
16272;SDS011;8244;50.044;9.006;2023-02-01T02:08:18;11.20;;;5.20;;
16272;SDS011;8244;50.044;9.006;2023-02-01T02:13:22;9.13;;;5.20;;
16272;SDS011;8244;50.044;9.006;2023-02-01T02:18:26;12.88;;;5.70;;
16272;SDS011;8244;50.044;9.006;2023-02-01T02:23:40;12.07;;;5.75;;
16272;SDS011;8244;50.044;9.006;2023-02-01T02:34:58;12.10;;;5.57;;
16272;SDS011;8244;50.044;9.006;2023-02-01T02:40:11;9.02;;;5.45;;
16272;SDS011;8244;50.044;9.006;2023-02-01T02:45:21;10.63;;;6.40;;
16272;SDS011;8244;50.044;9.006;2023-02-01T02:50:49;10.23;;;5.40;;
16272;SDS011;8244;50.044;9.006;2023-02-01T02:56:12;12.52;;;6.00;;
16272;SDS011;8244;50.044;9.006;2023-02-01T03:01:34;11.33;;;6.20;;
16272;SDS011;8244;50.044;9.006;2023-02-01T03:06:54;11.57;;;5.90;;
16272;SDS011;8244;50.044;9.006;2023-02-01T03:11:57;12.10;;;5.82;;
16272;SDS011;8244;50.044;9.006;2023-02-01T03:17:21;9.90;;;4.78;;
16272;SDS011;8244;50.044;9.006;2023-02-01T03:22:27;9.20;;;4.55;;
16272;SDS011;8244;50.044;9.006;2023-02-01T03:27:32;7.25;;;4.70;;
16272;SDS011;8244;50.044;9.006;2023-02-01T03:32:37;7.18;;;4.22;;
16272;SDS011;8244;50.044;9.006;2023-02-01T03:38:12;9.32;;;4.65;;
16272;SDS011;8244;50.044;9.006;2023-02-01T03:43:21;7.73;;;3.83;;
16272;SDS011;8244;50.044;9.006;2023-02-01T03:48:24;9.90;;;4.07;;
16272;SDS011;8244;50.044;9.006;2023-02-01T03:53:30;9.17;;;3.57;;
16272;SDS011;8244;50.044;9.006;2023-02-01T03:58:36;7.55;;;3.60;;
16272;SDS011;8244;50.044;9.006;2023-02-01T04:03:38;8.90;;;3.55;;
16272;SDS011;8244;50.044;9.006;2023-02-01T04:08:41;6.63;;;3.23;;
16272;SDS011;8244;50.044;9.006;2023-02-01T04:13:42;7.03;;;2.90;;
16272;SDS011;8244;50.044;9.006;2023-02-01T04:18:44;5.87;;;3.10;;
16272;SDS011;8244;50.044;9.006;2023-02-01T04:23:47;6.88;;;3.50;;
16272;SDS011;8244;50.044;9.006;2023-02-01T04:28:48;7.43;;;3.35;;
16272;SDS011;8244;50.044;9.006;2023-02-01T04:33:51;7.43;;;3.53;;
16272;SDS011;8244;50.044;9.006;2023-02-01T04:38:54;9.00;;;4.20;;
16272;SDS011;8244;50.044;9.006;2023-02-01T04:43:56;10.97;;;4.87;;
16272;SDS011;8244;50.044;9.006;2023-02-01T04:48:58;11.15;;;5.20;;
16272;SDS011;8244;50.044;9.006;2023-02-01T04:54:01;9.63;;;4.90;;
16272;SDS011;8244;50.044;9.006;2023-02-01T04:59:02;10.23;;;5.30;;
16272;SDS011;8244;50.044;9.006;2023-02-01T05:04:04;12.52;;;5.60;;
16272;SDS011;8244;50.044;9.006;2023-02-01T05:09:07;12.30;;;5.43;;
16272;SDS011;8244;50.044;9.006;2023-02-01T05:14:09;9.68;;;5.28;;
16272;SDS011;8244;50.044;9.006;2023-02-01T05:19:11;9.23;;;5.65;;
16272;SDS011;8244;50.044;9.006;2023-02-01T05:24:14;11.33;;;5.23;;
16272;SDS011;8244;50.044;9.006;2023-02-01T05:29:20;9.52;;;4.80;;
16272;SDS011;8244;50.044;9.006;2023-02-01T05:34:22;11.57;;;5.30;;
16272;SDS011;8244;50.044;9.006;2023-02-01T05:39:25;19.07;;;8.93;;
16272;SDS011;8244;50.044;9.006;2023-02-01T05:44:27;17.45;;;8.80;;
16272;SDS011;8244;50.044;9.006;2023-02-01T05:49:28;16.33;;;8.95;;
16272;SDS011;8244;50.044;9.006;2023-02-01T05:54:31;10.67;;;5.50;;
16272;SDS011;8244;50.044;9.006;2023-02-01T05:59:33;8.43;;;4.00;;
16272;SDS011;8244;50.044;9.006;2023-02-01T06:04:37;9.48;;;4.78;;
16272;SDS011;8244;50.044;9.006;2023-02-01T06:09:40;9.20;;;3.97;;
16272;SDS011;8244;50.044;9.006;2023-02-01T06:14:42;10.90;;;4.03;;
16272;SDS011;8244;50.044;9.006;2023-02-01T06:19:43;9.85;;;3.40;;
16272;SDS011;8244;50.044;9.006;2023-02-01T06:24:49;10.38;;;3.42;;
16272;SDS011;8244;50.044;9.006;2023-02-01T06:29:51;11.98;;;3.80;;
16272;SDS011;8244;50.044;9.006;2023-02-01T06:34:53;21.55;;;8.90;;
16272;SDS011;8244;50.044;9.006;2023-02-01T06:39:57;28.63;;;13.77;;
16272;SDS011;8244;50.044;9.006;2023-02-01T06:44:58;19.27;;;9.25;;
16272;SDS011;8244;50.044;9.006;2023-02-01T06:50:00;10.47;;;3.30;;
16272;SDS011;8244;50.044;9.006;2023-02-01T06:55:03;14.83;;;5.73;;
16272;SDS011;8244;50.044;9.006;2023-02-01T07:00:06;18.00;;;7.77;;
16272;SDS011;8244;50.044;9.006;2023-02-01T07:05:08;10.73;;;4.13;;
16272;SDS011;8244;50.044;9.006;2023-02-01T07:10:11;15.93;;;6.53;;
16272;SDS011;8244;50.044;9.006;2023-02-01T07:15:13;8.90;;;3.07;;
16272;SDS011;8244;50.044;9.006;2023-02-01T07:20:15;6.50;;;2.40;;
16272;SDS011;8244;50.044;9.006;2023-02-01T07:25:19;5.30;;;2.37;;
16272;SDS011;8244;50.044;9.006;2023-02-01T07:30:20;8.80;;;2.50;;
16272;SDS011;8244;50.044;9.006;2023-02-01T07:35:22;9.87;;;3.10;;
16272;SDS011;8244;50.044;9.006;2023-02-01T07:40:25;13.87;;;4.07;;
16272;SDS011;8244;50.044;9.006;2023-02-01T07:45:28;12.43;;;4.13;;
16272;SDS011;8244;50.044;9.006;2023-02-01T07:50:30;10.80;;;3.90;;
16272;SDS011;8244;50.044;9.006;2023-02-01T07:55:33;15.93;;;3.57;;
16272;SDS011;8244;50.044;9.006;2023-02-01T08:00:36;13.03;;;3.47;;
16272;SDS011;8244;50.044;9.006;2023-02-01T08:05:55;13.07;;;4.77;;
16272;SDS011;8244;50.044;9.006;2023-02-01T08:10:59;13.75;;;5.05;;
16272;SDS011;8244;50.044;9.006;2023-02-01T08:16:02;18.17;;;7.10;;
16272;SDS011;8244;50.044;9.006;2023-02-01T08:21:06;11.07;;;4.70;;
16272;SDS011;8244;50.044;9.006;2023-02-01T08:26:11;10.43;;;3.10;;
16272;SDS011;8244;50.044;9.006;2023-02-01T08:31:17;20.00;;;7.10;;
16272;SDS011;8244;50.044;9.006;2023-02-01T08:36:20;11.23;;;4.88;;
16272;SDS011;8244;50.044;9.006;2023-02-01T08:41:24;21.07;;;9.20;;
16272;SDS011;8244;50.044;9.006;2023-02-01T08:46:27;25.23;;;7.50;;
16272;SDS011;8244;50.044;9.006;2023-02-01T08:51:29;19.17;;;7.28;;
16272;SDS011;8244;50.044;9.006;2023-02-01T08:56:32;20.65;;;8.10;;
16272;SDS011;8244;50.044;9.006;2023-02-01T09:01:33;13.85;;;5.50;;
16272;SDS011;8244;50.044;9.006;2023-02-01T09:06:35;14.45;;;5.32;;
16272;SDS011;8244;50.044;9.006;2023-02-01T09:11:38;12.13;;;3.75;;
16272;SDS011;8244;50.044;9.006;2023-02-01T09:16:39;19.38;;;6.32;;
16272;SDS011;8244;50.044;9.006;2023-02-01T09:21:41;23.67;;;6.15;;
16272;SDS011;8244;50.044;9.006;2023-02-01T09:26:44;19.08;;;6.80;;
16272;SDS011;8244;50.044;9.006;2023-02-01T09:31:46;16.60;;;5.43;;
16272;SDS011;8244;50.044;9.006;2023-02-01T09:36:47;16.35;;;4.07;;
16272;SDS011;8244;50.044;9.006;2023-02-01T09:41:54;13.88;;;4.47;;
16272;SDS011;8244;50.044;9.006;2023-02-01T09:47:00;22.25;;;6.60;;
16272;SDS011;8244;50.044;9.006;2023-02-01T09:52:05;20.40;;;5.35;;
16272;SDS011;8244;50.044;9.006;2023-02-01T09:57:12;22.13;;;7.65;;
16272;SDS011;8244;50.044;9.006;2023-02-01T10:02:17;25.65;;;8.98;;
16272;SDS011;8244;50.044;9.006;2023-02-01T10:07:24;16.02;;;3.90;;
16272;SDS011;8244;50.044;9.006;2023-02-01T10:18:16;14.52;;;4.93;;
16272;SDS011;8244;50.044;9.006;2023-02-01T10:23:48;20.63;;;5.00;;
16272;SDS011;8244;50.044;9.006;2023-02-01T10:29:01;16.27;;;5.20;;
16272;SDS011;8244;50.044;9.006;2023-02-01T10:34:07;22.80;;;8.30;;
16272;SDS011;8244;50.044;9.006;2023-02-01T10:39:18;21.58;;;6.28;;
16272;SDS011;8244;50.044;9.006;2023-02-01T10:44:22;21.92;;;5.18;;
16272;SDS011;8244;50.044;9.006;2023-02-01T10:49:29;11.32;;;3.47;;
16272;SDS011;8244;50.044;9.006;2023-02-01T10:54:37;14.25;;;2.60;;
16272;SDS011;8244;50.044;9.006;2023-02-01T10:59:41;16.98;;;3.13;;
16272;SDS011;8244;50.044;9.006;2023-02-01T11:04:42;14.35;;;3.33;;
16272;SDS011;8244;50.044;9.006;2023-02-01T11:09:48;14.32;;;2.67;;
16272;SDS011;8244;50.044;9.006;2023-02-01T11:14:58;12.93;;;2.85;;
16272;SDS011;8244;50.044;9.006;2023-02-01T11:20:03;16.98;;;4.25;;
16272;SDS011;8244;50.044;9.006;2023-02-01T11:25:08;17.70;;;5.43;;
16272;SDS011;8244;50.044;9.006;2023-02-01T11:30:16;22.70;;;8.32;;
16272;SDS011;8244;50.044;9.006;2023-02-01T11:35:20;24.65;;;9.70;;
16272;SDS011;8244;50.044;9.006;2023-02-01T11:40:25;19.08;;;7.22;;
16272;SDS011;8244;50.044;9.006;2023-02-01T11:45:30;19.52;;;6.15;;
16272;SDS011;8244;50.044;9.006;2023-02-01T11:50:35;15.73;;;4.43;;
16272;SDS011;8244;50.044;9.006;2023-02-01T11:55:47;17.67;;;5.90;;
16272;SDS011;8244;50.044;9.006;2023-02-01T12:01:05;14.02;;;5.05;;
16272;SDS011;8244;50.044;9.006;2023-02-01T12:06:22;21.95;;;7.60;;
16272;SDS011;8244;50.044;9.006;2023-02-01T12:11:35;17.10;;;4.82;;
16272;SDS011;8244;50.044;9.006;2023-02-01T12:17:00;13.15;;;3.90;;
16272;SDS011;8244;50.044;9.006;2023-02-01T12:22:22;16.92;;;5.00;;
16272;SDS011;8244;50.044;9.006;2023-02-01T12:33:17;25.58;;;9.38;;
16272;SDS011;8244;50.044;9.006;2023-02-01T12:38:39;21.90;;;7.45;;
16272;SDS011;8244;50.044;9.006;2023-02-01T12:43:54;15.10;;;5.80;;
16272;SDS011;8244;50.044;9.006;2023-02-01T12:49:01;16.13;;;3.53;;
16272;SDS011;8244;50.044;9.006;2023-02-01T12:54:09;16.63;;;4.63;;
16272;SDS011;8244;50.044;9.006;2023-02-01T12:59:17;14.45;;;5.35;;
16272;SDS011;8244;50.044;9.006;2023-02-01T13:04:25;13.18;;;3.63;;
16272;SDS011;8244;50.044;9.006;2023-02-01T13:09:31;15.48;;;4.55;;
16272;SDS011;8244;50.044;9.006;2023-02-01T13:14:40;17.67;;;6.85;;
16272;SDS011;8244;50.044;9.006;2023-02-01T13:19:49;22.02;;;7.72;;
16272;SDS011;8244;50.044;9.006;2023-02-01T13:24:56;19.10;;;4.47;;
16272;SDS011;8244;50.044;9.006;2023-02-01T13:30:00;16.77;;;4.57;;
16272;SDS011;8244;50.044;9.006;2023-02-01T13:35:14;12.30;;;3.70;;
16272;SDS011;8244;50.044;9.006;2023-02-01T13:40:33;15.63;;;4.30;;
16272;SDS011;8244;50.044;9.006;2023-02-01T13:45:45;14.77;;;4.38;;
16272;SDS011;8244;50.044;9.006;2023-02-01T13:50:51;15.23;;;5.85;;
16272;SDS011;8244;50.044;9.006;2023-02-01T13:55:56;13.52;;;4.20;;
16272;SDS011;8244;50.044;9.006;2023-02-01T14:06:44;17.85;;;4.15;;
16272;SDS011;8244;50.044;9.006;2023-02-01T14:11:48;13.85;;;3.65;;
16272;SDS011;8244;50.044;9.006;2023-02-01T14:22:42;14.02;;;3.38;;
16272;SDS011;8244;50.044;9.006;2023-02-01T14:27:43;12.63;;;2.90;;
16272;SDS011;8244;50.044;9.006;2023-02-01T14:32:45;12.30;;;3.00;;
16272;SDS011;8244;50.044;9.006;2023-02-01T14:37:51;13.07;;;3.17;;
16272;SDS011;8244;50.044;9.006;2023-02-01T14:42:54;12.07;;;3.42;;
16272;SDS011;8244;50.044;9.006;2023-02-01T14:53:33;10.93;;;2.45;;
16272;SDS011;8244;50.044;9.006;2023-02-01T14:58:37;15.43;;;2.50;;
16272;SDS011;8244;50.044;9.006;2023-02-01T15:03:47;10.27;;;2.20;;
16272;SDS011;8244;50.044;9.006;2023-02-01T15:08:57;16.38;;;2.83;;
16272;SDS011;8244;50.044;9.006;2023-02-01T15:14:01;13.05;;;2.80;;
16272;SDS011;8244;50.044;9.006;2023-02-01T15:19:09;14.02;;;3.83;;
16272;SDS011;8244;50.044;9.006;2023-02-01T15:24:18;15.15;;;2.72;;
16272;SDS011;8244;50.044;9.006;2023-02-01T15:29:22;10.95;;;2.50;;
16272;SDS011;8244;50.044;9.006;2023-02-01T15:40:05;10.07;;;2.65;;
16272;SDS011;8244;50.044;9.006;2023-02-01T15:45:22;13.55;;;2.65;;
16272;SDS011;8244;50.044;9.006;2023-02-01T15:50:28;11.45;;;3.17;;
16272;SDS011;8244;50.044;9.006;2023-02-01T15:55:34;12.45;;;4.22;;
16272;SDS011;8244;50.044;9.006;2023-02-01T16:00:41;17.23;;;3.42;;
16272;SDS011;8244;50.044;9.006;2023-02-01T16:05:45;14.43;;;3.50;;
16272;SDS011;8244;50.044;9.006;2023-02-01T16:10:48;7.97;;;2.72;;
16272;SDS011;8244;50.044;9.006;2023-02-01T16:15:51;12.20;;;2.70;;
16272;SDS011;8244;50.044;9.006;2023-02-01T16:20:53;11.50;;;2.88;;
16272;SDS011;8244;50.044;9.006;2023-02-01T16:25:56;12.40;;;2.78;;
16272;SDS011;8244;50.044;9.006;2023-02-01T16:30:57;13.52;;;3.83;;
16272;SDS011;8244;50.044;9.006;2023-02-01T16:35:59;14.23;;;2.97;;
16272;SDS011;8244;50.044;9.006;2023-02-01T16:41:03;9.98;;;2.50;;
16272;SDS011;8244;50.044;9.006;2023-02-01T16:46:10;16.83;;;4.30;;
16272;SDS011;8244;50.044;9.006;2023-02-01T16:51:15;9.77;;;2.30;;
16272;SDS011;8244;50.044;9.006;2023-02-01T16:56:19;11.50;;;2.40;;
16272;SDS011;8244;50.044;9.006;2023-02-01T17:01:22;15.20;;;2.80;;
16272;SDS011;8244;50.044;9.006;2023-02-01T17:06:24;10.15;;;2.92;;
16272;SDS011;8244;50.044;9.006;2023-02-01T17:11:30;9.23;;;2.30;;
16272;SDS011;8244;50.044;9.006;2023-02-01T17:16:32;12.90;;;3.15;;
16272;SDS011;8244;50.044;9.006;2023-02-01T17:21:39;10.65;;;3.08;;
16272;SDS011;8244;50.044;9.006;2023-02-01T17:26:44;15.73;;;4.00;;
16272;SDS011;8244;50.044;9.006;2023-02-01T17:31:47;12.45;;;2.83;;
16272;SDS011;8244;50.044;9.006;2023-02-01T17:36:50;15.48;;;3.40;;
16272;SDS011;8244;50.044;9.006;2023-02-01T17:41:53;14.80;;;3.25;;
16272;SDS011;8244;50.044;9.006;2023-02-01T17:46:55;12.25;;;2.72;;
16272;SDS011;8244;50.044;9.006;2023-02-01T17:51:58;13.00;;;2.88;;
16272;SDS011;8244;50.044;9.006;2023-02-01T17:57:01;11.20;;;3.15;;
16272;SDS011;8244;50.044;9.006;2023-02-01T18:02:03;11.60;;;2.70;;
16272;SDS011;8244;50.044;9.006;2023-02-01T18:07:10;11.63;;;3.28;;
16272;SDS011;8244;50.044;9.006;2023-02-01T18:12:14;12.35;;;3.20;;
16272;SDS011;8244;50.044;9.006;2023-02-01T18:17:19;13.68;;;3.60;;
16272;SDS011;8244;50.044;9.006;2023-02-01T18:22:21;14.85;;;3.10;;
16272;SDS011;8244;50.044;9.006;2023-02-01T18:27:26;14.73;;;3.40;;
16272;SDS011;8244;50.044;9.006;2023-02-01T18:32:28;14.43;;;3.35;;
16272;SDS011;8244;50.044;9.006;2023-02-01T18:37:30;13.35;;;2.90;;
16272;SDS011;8244;50.044;9.006;2023-02-01T18:42:33;17.83;;;3.42;;
16272;SDS011;8244;50.044;9.006;2023-02-01T18:47:34;14.13;;;3.17;;
16272;SDS011;8244;50.044;9.006;2023-02-01T18:52:36;12.05;;;3.53;;
16272;SDS011;8244;50.044;9.006;2023-02-01T18:57:39;14.38;;;3.15;;
16272;SDS011;8244;50.044;9.006;2023-02-01T19:02:41;14.23;;;2.90;;
16272;SDS011;8244;50.044;9.006;2023-02-01T19:07:43;13.30;;;3.20;;
16272;SDS011;8244;50.044;9.006;2023-02-01T19:12:49;16.42;;;2.92;;
16272;SDS011;8244;50.044;9.006;2023-02-01T19:17:52;17.38;;;3.67;;
16272;SDS011;8244;50.044;9.006;2023-02-01T19:22:55;15.85;;;3.40;;
16272;SDS011;8244;50.044;9.006;2023-02-01T19:27:58;14.32;;;3.67;;
16272;SDS011;8244;50.044;9.006;2023-02-01T19:32:59;13.15;;;3.20;;
16272;SDS011;8244;50.044;9.006;2023-02-01T19:38:03;13.40;;;4.07;;
16272;SDS011;8244;50.044;9.006;2023-02-01T19:43:06;13.05;;;3.25;;
16272;SDS011;8244;50.044;9.006;2023-02-01T19:48:08;15.65;;;3.20;;
16272;SDS011;8244;50.044;9.006;2023-02-01T19:53:12;18.05;;;3.92;;
16272;SDS011;8244;50.044;9.006;2023-02-01T19:58:15;15.70;;;3.58;;
16272;SDS011;8244;50.044;9.006;2023-02-01T20:03:17;14.10;;;3.20;;
16272;SDS011;8244;50.044;9.006;2023-02-01T20:08:19;14.10;;;3.25;;
16272;SDS011;8244;50.044;9.006;2023-02-01T20:13:22;13.18;;;3.17;;
16272;SDS011;8244;50.044;9.006;2023-02-01T20:18:24;13.30;;;2.90;;
16272;SDS011;8244;50.044;9.006;2023-02-01T20:23:26;10.88;;;2.95;;
16272;SDS011;8244;50.044;9.006;2023-02-01T20:28:30;12.60;;;3.15;;
16272;SDS011;8244;50.044;9.006;2023-02-01T20:33:32;15.45;;;3.20;;
16272;SDS011;8244;50.044;9.006;2023-02-01T20:38:34;13.52;;;3.70;;
16272;SDS011;8244;50.044;9.006;2023-02-01T20:43:37;19.90;;;4.32;;
16272;SDS011;8244;50.044;9.006;2023-02-01T20:48:41;14.30;;;4.05;;
16272;SDS011;8244;50.044;9.006;2023-02-01T20:53:43;17.38;;;3.58;;
16272;SDS011;8244;50.044;9.006;2023-02-01T20:58:48;15.32;;;4.25;;
16272;SDS011;8244;50.044;9.006;2023-02-01T21:03:49;15.45;;;3.20;;
16272;SDS011;8244;50.044;9.006;2023-02-01T21:08:51;23.15;;;2.92;;
16272;SDS011;8244;50.044;9.006;2023-02-01T21:13:54;13.45;;;3.25;;
16272;SDS011;8244;50.044;9.006;2023-02-01T21:18:57;16.73;;;3.00;;
16272;SDS011;8244;50.044;9.006;2023-02-01T21:23:58;14.13;;;3.13;;
16272;SDS011;8244;50.044;9.006;2023-02-01T21:29:01;15.73;;;3.00;;
16272;SDS011;8244;50.044;9.006;2023-02-01T21:34:03;14.20;;;2.80;;
16272;SDS011;8244;50.044;9.006;2023-02-01T21:39:06;12.75;;;2.85;;
16272;SDS011;8244;50.044;9.006;2023-02-01T21:44:11;13.38;;;3.00;;
16272;SDS011;8244;50.044;9.006;2023-02-01T21:49:14;10.93;;;2.55;;
16272;SDS011;8244;50.044;9.006;2023-02-01T21:54:15;11.00;;;2.58;;
16272;SDS011;8244;50.044;9.006;2023-02-01T21:59:18;12.02;;;2.75;;
16272;SDS011;8244;50.044;9.006;2023-02-01T22:04:20;12.35;;;2.83;;
16272;SDS011;8244;50.044;9.006;2023-02-01T22:09:22;13.25;;;2.75;;
16272;SDS011;8244;50.044;9.006;2023-02-01T22:14:26;16.20;;;3.70;;
16272;SDS011;8244;50.044;9.006;2023-02-01T22:19:28;13.68;;;3.40;;
16272;SDS011;8244;50.044;9.006;2023-02-01T22:24:30;14.57;;;3.40;;
16272;SDS011;8244;50.044;9.006;2023-02-01T22:29:34;13.98;;;3.15;;
16272;SDS011;8244;50.044;9.006;2023-02-01T22:34:36;15.63;;;3.10;;
16272;SDS011;8244;50.044;9.006;2023-02-01T22:39:38;14.50;;;2.88;;
16272;SDS011;8244;50.044;9.006;2023-02-01T22:44:41;13.10;;;3.25;;
16272;SDS011;8244;50.044;9.006;2023-02-01T22:49:44;12.43;;;2.50;;
16272;SDS011;8244;50.044;9.006;2023-02-01T22:54:45;10.50;;;2.50;;
16272;SDS011;8244;50.044;9.006;2023-02-01T22:59:48;7.18;;;2.47;;
16272;SDS011;8244;50.044;9.006;2023-02-01T23:04:50;12.45;;;2.88;;
16272;SDS011;8244;50.044;9.006;2023-02-01T23:09:51;15.52;;;2.90;;
16272;SDS011;8244;50.044;9.006;2023-02-01T23:14:54;13.05;;;2.70;;
16272;SDS011;8244;50.044;9.006;2023-02-01T23:20:06;15.20;;;3.03;;
16272;SDS011;8244;50.044;9.006;2023-02-01T23:25:14;12.18;;;2.95;;
16272;SDS011;8244;50.044;9.006;2023-02-01T23:30:18;10.88;;;2.33;;
16272;SDS011;8244;50.044;9.006;2023-02-01T23:35:20;12.00;;;2.70;;
16272;SDS011;8244;50.044;9.006;2023-02-01T23:40:22;12.02;;;2.70;;
16272;SDS011;8244;50.044;9.006;2023-02-01T23:45:24;15.15;;;2.92;;
16272;SDS011;8244;50.044;9.006;2023-02-01T23:50:27;18.63;;;3.08;;
16272;SDS011;8244;50.044;9.006;2023-02-01T23:55:29;12.57;;;2.65;;
